Time;durP1;ratioP1;P1;durP2;ratioP2;P2;SDS_P1;SDS_P2;PMS_P1;PMS_P2;Temp;Humidity;BMP_temperature;BMP_pressure;BME280_temperature;BME280_humidity;BME280_pressure;Samples;Min_cycle;Max_cycle;Signal;HPM_P1;HPM_P2
2022/08/10 00:00:30;;;;;;;10.88;5.25;;;;;;;;;;10053266;28;20136;-76
2022/08/10 00:05:27;;;;;;;7.28;4.68;;;;;;;;;;10043463;28;20091;-70
2022/08/10 00:10:36;;;;;;;5.97;5.38;;;;;;;;;;10041403;28;20056;-68
2022/08/10 00:15:28;;;;;;;6.10;4.93;;;;;;;;;;10048927;28;20058;-76
2022/08/10 00:20:42;;;;;;;6.13;5.50;;;;;;;;;;10044145;28;20064;-76
2022/08/10 00:25:35;;;;;;;8.10;4.65;;;;;;;;;;10055420;28;20411;-75
2022/08/10 00:30:28;;;;;;;5.55;4.97;;;;;;;;;;10052727;28;20042;-75
2022/08/10 00:35:20;;;;;;;5.28;4.78;;;;;;;;;;10047731;28;20057;-76
2022/08/10 00:40:14;;;;;;;5.20;4.70;;;;;;;;;;10054124;28;20053;-76
2022/08/10 00:45:09;;;;;;;5.90;5.40;;;;;;;;;;10055867;28;20109;-76
2022/08/10 00:50:05;;;;;;;7.38;4.75;;;;;;;;;;10051860;28;20057;-75
2022/08/10 00:54:59;;;;;;;10.30;6.20;;;;;;;;;;10056264;28;20453;-75
2022/08/10 00:59:52;;;;;;;7.53;5.68;;;;;;;;;;10057860;28;20080;-75
2022/08/10 01:04:52;;;;;;;7.15;4.90;;;;;;;;;;10045635;28;20053;-74
2022/08/10 01:10:04;;;;;;;6.13;5.53;;;;;;;;;;10044898;28;20080;-76
2022/08/10 01:15:14;;;;;;;7.25;5.43;;;;;;;;;;10048737;28;20755;-76
2022/08/10 01:20:29;;;;;;;6.45;5.38;;;;;;;;;;10049877;28;20042;-75
2022/08/10 01:25:57;;;;;;;8.02;4.75;;;;;;;;;;10055596;28;20931;-74
2022/08/10 01:31:08;;;;;;;7.45;5.07;;;;;;;;;;10055035;28;20434;-74
2022/08/10 01:36:17;;;;;;;5.13;4.63;;;;;;;;;;10049839;28;20467;-75
2022/08/10 01:41:45;;;;;;;10.70;5.32;;;;;;;;;;10045142;28;20100;-75
2022/08/10 01:46:44;;;;;;;7.90;5.43;;;;;;;;;;10054049;28;20384;-74
2022/08/10 01:51:45;;;;;;;7.50;5.05;;;;;;;;;;10049711;28;20057;-74
2022/08/10 01:56:44;;;;;;;6.35;5.70;;;;;;;;;;10054760;28;20053;-75
2022/08/10 02:01:41;;;;;;;7.43;5.53;;;;;;;;;;10054426;28;20074;-76
2022/08/10 02:06:45;;;;;;;5.75;5.25;;;;;;;;;;10046722;28;20050;-76
2022/08/10 02:11:39;;;;;;;7.10;5.05;;;;;;;;;;10054274;28;20137;-76
2022/08/10 02:16:52;;;;;;;8.13;5.70;;;;;;;;;;10055152;28;20064;-75
2022/08/10 02:21:47;;;;;;;12.02;7.68;;;;;;;;;;10059664;28;20049;-76
2022/08/10 02:26:59;;;;;;;15.25;7.93;;;;;;;;;;10058870;28;20095;-76
2022/08/10 02:31:54;;;;;;;9.35;8.55;;;;;;;;;;10061797;28;20545;-76
2022/08/10 02:36:51;;;;;;;16.50;10.45;;;;;;;;;;10056665;28;20052;-76
2022/08/10 02:41:55;;;;;;;13.88;10.50;;;;;;;;;;10061839;28;20551;-75
2022/08/10 02:47:29;;;;;;;10.77;9.77;;;;;;;;;;10059236;28;20461;-77
2022/08/10 02:52:45;;;;;;;10.75;9.75;;;;;;;;;;10064739;28;20049;-74
2022/08/10 02:57:40;;;;;;;11.75;8.48;;;;;;;;;;10054822;28;20053;-78
2022/08/10 03:02:54;;;;;;;10.73;8.63;;;;;;;;;;10047683;28;20050;-76
2022/08/10 03:07:52;;;;;;;10.05;8.98;;;;;;;;;;10055095;28;20050;-74
2022/08/10 03:13:24;;;;;;;11.13;9.15;;;;;;;;;;10052702;28;20046;-76
2022/08/10 03:18:18;;;;;;;9.82;8.93;;;;;;;;;;10050753;28;20053;-75
2022/08/10 03:23:14;;;;;;;13.95;9.63;;;;;;;;;;10050278;28;20061;-76
2022/08/10 03:28:22;;;;;;;15.80;10.02;;;;;;;;;;10055731;28;20441;-76
2022/08/10 03:33:16;;;;;;;16.75;11.93;;;;;;;;;;10061530;28;20053;-76
2022/08/10 03:38:09;;;;;;;12.70;10.00;;;;;;;;;;10054334;28;20081;-76
2022/08/10 03:43:04;;;;;;;13.20;9.43;;;;;;;;;;10062008;28;20053;-74
2022/08/10 03:48:00;;;;;;;11.52;7.97;;;;;;;;;;10055190;28;20476;-76
2022/08/10 03:52:54;;;;;;;8.05;7.00;;;;;;;;;;10060550;28;20445;-76
2022/08/10 03:57:48;;;;;;;7.35;6.65;;;;;;;;;;10054072;28;20057;-74
2022/08/10 04:02:41;;;;;;;6.90;6.22;;;;;;;;;;10045326;28;20053;-75
2022/08/10 04:07:41;;;;;;;6.38;5.80;;;;;;;;;;10047101;28;20065;-75
2022/08/10 04:12:35;;;;;;;7.93;7.13;;;;;;;;;;10052181;28;20065;-75
2022/08/10 04:17:28;;;;;;;9.07;7.13;;;;;;;;;;10052737;28;20044;-70
2022/08/10 04:22:42;;;;;;;12.25;6.45;;;;;;;;;;10050477;28;20088;-75
2022/08/10 04:27:35;;;;;;;10.73;6.85;;;;;;;;;;10053806;28;20046;-76
2022/08/10 04:32:30;;;;;;;11.15;6.55;;;;;;;;;;10061604;28;20041;-76
2022/08/10 04:37:25;;;;;;;13.05;7.68;;;;;;;;;;10058016;28;20050;-75
2022/08/10 04:42:19;;;;;;;12.82;8.30;;;;;;;;;;10054965;28;20054;-76
2022/08/10 04:47:12;;;;;;;12.25;8.02;;;;;;;;;;10046064;28;20529;-76
2022/08/10 04:52:25;;;;;;;10.68;8.88;;;;;;;;;;10051245;28;20130;-76
2022/08/10 04:57:17;;;;;;;14.02;10.15;;;;;;;;;;10049134;28;20045;-77
2022/08/10 05:02:11;;;;;;;15.80;10.45;;;;;;;;;;10049376;28;20410;-76
2022/08/10 05:07:22;;;;;;;11.55;9.75;;;;;;;;;;10047559;28;20053;-76
2022/08/10 05:12:16;;;;;;;12.40;8.63;;;;;;;;;;10056551;28;20058;-76
2022/08/10 05:17:09;;;;;;;8.60;7.85;;;;;;;;;;10045525;28;20078;-76
2022/08/10 05:22:03;;;;;;;11.10;7.95;;;;;;;;;;10055550;28;20061;-76
2022/08/10 05:26:56;;;;;;;11.98;8.82;;;;;;;;;;10056206;28;20053;-75
2022/08/10 05:32:02;;;;;;;10.70;9.05;;;;;;;;;;10056814;28;20049;-76
2022/08/10 05:36:55;;;;;;;10.88;8.25;;;;;;;;;;10058673;28;20053;-76
2022/08/10 05:41:53;;;;;;;9.40;8.45;;;;;;;;;;10057908;28;20405;-77
2022/08/10 05:46:45;;;;;;;9.70;8.27;;;;;;;;;;10045666;28;20046;-63
2022/08/10 05:51:38;;;;;;;13.20;8.15;;;;;;;;;;10044299;28;20392;-63
2022/08/10 05:56:35;;;;;;;12.13;8.23;;;;;;;;;;10052521;28;20049;-68
2022/08/10 06:01:51;;;;;;;18.17;7.70;;;;;;;;;;10055402;28;20132;-62
2022/08/10 06:07:05;;;;;;;8.20;7.28;;;;;;;;;;10054281;28;20136;-61
2022/08/10 06:11:59;;;;;;;9.50;7.50;;;;;;;;;;10064693;28;20148;-63
2022/08/10 06:17:12;;;;;;;7.85;6.93;;;;;;;;;;10057709;28;20080;-59
2022/08/10 06:22:06;;;;;;;8.63;7.65;;;;;;;;;;10059355;28;20516;-59
2022/08/10 06:26:59;;;;;;;17.55;8.63;;;;;;;;;;10048266;28;20137;-59
2022/08/10 06:31:52;;;;;;;8.38;7.63;;;;;;;;;;10058164;28;20046;-59
2022/08/10 06:36:47;;;;;;;9.45;7.60;;;;;;;;;;10059194;28;20042;-62
2022/08/10 06:41:49;;;;;;;12.52;7.75;;;;;;;;;;10055919;28;20077;-64
2022/08/10 06:47:03;;;;;;;8.57;7.80;;;;;;;;;;10063215;28;20049;-61
2022/08/10 06:51:56;;;;;;;9.25;7.55;;;;;;;;;;10047530;28;20497;-63
2022/08/10 06:56:53;;;;;;;14.27;7.63;;;;;;;;;;10061443;28;20060;-62
2022/08/10 07:02:09;;;;;;;7.88;6.60;;;;;;;;;;10053643;28;20045;-63
2022/08/10 07:07:05;;;;;;;11.77;8.07;;;;;;;;;;10059124;28;20057;-63
2022/08/10 07:11:58;;;;;;;8.75;7.30;;;;;;;;;;10063657;28;20050;-63
2022/08/10 07:17:00;;;;;;;10.20;7.82;;;;;;;;;;10056560;28;20099;-60
2022/08/10 07:21:54;;;;;;;8.75;7.68;;;;;;;;;;10044443;28;20041;-60
2022/08/10 07:26:52;;;;;;;9.30;7.18;;;;;;;;;;10054853;28;20049;-60
2022/08/10 07:31:48;;;;;;;8.27;7.45;;;;;;;;;;10059152;28;20124;-61
2022/08/10 07:36:51;;;;;;;9.07;8.20;;;;;;;;;;10062787;28;20069;-61
2022/08/10 07:41:45;;;;;;;10.50;7.13;;;;;;;;;;10056647;28;20061;-62
2022/08/10 07:46:45;;;;;;;13.23;7.28;;;;;;;;;;10054600;28;20077;-61
2022/08/10 07:51:39;;;;;;;9.50;6.40;;;;;;;;;;10053870;28;20107;-67
2022/08/10 07:56:32;;;;;;;13.27;6.97;;;;;;;;;;10047183;28;20392;-69
2022/08/10 08:01:49;;;;;;;7.93;6.95;;;;;;;;;;10054748;28;20049;-68
2022/08/10 08:06:43;;;;;;;14.38;6.70;;;;;;;;;;10064631;28;20049;-68
2022/08/10 08:11:41;;;;;;;8.35;5.65;;;;;;;;;;10054509;28;20049;-67
2022/08/10 08:16:45;;;;;;;9.27;5.45;;;;;;;;;;10050143;28;20465;-63
2022/08/10 08:22:18;;;;;;;11.30;5.00;;;;;;;;;;10063622;28;20406;-61
2022/08/10 08:27:32;;;;;;;6.75;4.90;;;;;;;;;;10060802;28;20107;-62
2022/08/10 08:32:28;;;;;;;6.43;4.03;;;;;;;;;;10064513;28;20406;-62
2022/08/10 08:38:01;;;;;;;12.80;3.77;;;;;;;;;;10064001;28;20064;-63
2022/08/10 08:43:52;;;;;;;10.93;3.88;;;;;;;;;;10062055;28;20441;-61
2022/08/10 08:49:03;;;;;;;10.73;3.40;;;;;;;;;;10055715;28;20045;-62
2022/08/10 08:54:42;;;;;;;3.97;3.20;;;;;;;;;;10057782;28;20049;-62
2022/08/10 08:59:56;;;;;;;7.53;2.88;;;;;;;;;;10060697;28;20052;-63
2022/08/10 09:05:13;;;;;;;4.68;2.72;;;;;;;;;;10057144;28;20124;-62
2022/08/10 09:10:20;;;;;;;6.90;2.90;;;;;;;;;;10050932;28;20053;-63
2022/08/10 09:15:46;;;;;;;6.45;3.30;;;;;;;;;;10056681;28;20132;-63
2022/08/10 09:21:00;;;;;;;13.73;2.97;;;;;;;;;;10066916;28;20057;-62
2022/08/10 09:26:00;;;;;;;6.32;3.22;;;;;;;;;;10063764;28;20735;-63
2022/08/10 09:31:05;;;;;;;13.68;2.45;;;;;;;;;;10068618;28;20045;-62
2022/08/10 09:36:16;;;;;;;7.43;2.28;;;;;;;;;;10063432;28;20044;-63
2022/08/10 09:41:58;;;;;;;7.60;2.72;;;;;;;;;;10068699;28;20387;-62
2022/08/10 09:46:53;;;;;;;5.63;2.58;;;;;;;;;;10069844;28;20049;-62
2022/08/10 09:51:50;;;;;;;4.47;2.00;;;;;;;;;;10067759;28;20152;-61
2022/08/10 09:57:04;;;;;;;6.93;3.08;;;;;;;;;;10066514;28;20061;-65
2022/08/10 10:02:51;;;;;;;5.70;2.25;;;;;;;;;;10065719;28;20049;-62
2022/08/10 10:07:52;;;;;;;13.13;3.03;;;;;;;;;;10059638;28;20049;-62
2022/08/10 10:12:48;;;;;;;7.97;2.13;;;;;;;;;;10065575;28;20045;-62
2022/08/10 10:18:06;;;;;;;9.80;1.92;;;;;;;;;;10059551;28;20049;-62
2022/08/10 10:23:22;;;;;;;8.40;2.17;;;;;;;;;;10057134;28;20053;-62
2022/08/10 10:28:50;;;;;;;6.70;1.88;;;;;;;;;;10052002;28;20105;-61
2022/08/10 10:34:11;;;;;;;3.80;1.30;;;;;;;;;;10057325;28;20484;-61
2022/08/10 10:39:05;;;;;;;9.52;1.58;;;;;;;;;;10062879;28;20045;-61
2022/08/10 10:44:07;;;;;;;6.28;1.60;;;;;;;;;;10063093;28;20053;-61
2022/08/10 10:49:06;;;;;;;5.40;1.40;;;;;;;;;;10060623;28;20046;-61
2022/08/10 10:54:30;;;;;;;2.88;1.52;;;;;;;;;;10064259;28;20498;-61
2022/08/10 10:59:40;;;;;;;2.22;1.20;;;;;;;;;;10066968;28;20079;-61
2022/08/10 11:04:54;;;;;;;5.37;1.63;;;;;;;;;;10061828;28;20553;-62
2022/08/10 11:09:53;;;;;;;10.02;1.65;;;;;;;;;;10052645;28;20053;-62
2022/08/10 11:15:28;;;;;;;4.43;1.60;;;;;;;;;;10043468;28;20144;-62
2022/08/10 11:21:17;;;;;;;2.38;1.20;;;;;;;;;;10073737;28;20037;-62
2022/08/10 11:26:25;;;;;;;1.90;1.23;;;;;;;;;;10065380;28;20051;-61
2022/08/10 11:32:03;;;;;;;3.20;1.33;;;;;;;;;;10059844;28;20119;-61
2022/08/10 11:37:08;;;;;;;1.98;1.30;;;;;;;;;;10054586;28;20533;-66
2022/08/10 11:42:09;;;;;;;5.38;1.27;;;;;;;;;;10066819;28;20441;-66
2022/08/10 11:47:48;;;;;;;6.25;1.15;;;;;;;;;;10062804;28;20076;-62
2022/08/10 11:52:47;;;;;;;4.88;1.40;;;;;;;;;;10063003;28;20429;-63
2022/08/10 11:57:41;;;;;;;5.10;1.30;;;;;;;;;;10061326;28;20049;-63
2022/08/10 12:02:55;;;;;;;4.65;1.27;;;;;;;;;;10060387;28;20504;-62
2022/08/10 12:07:54;;;;;;;1.95;1.20;;;;;;;;;;10048697;28;20056;-63
2022/08/10 12:13:23;;;;;;;8.50;1.50;;;;;;;;;;10038079;28;20134;-65
2022/08/10 12:18:26;;;;;;;5.20;1.60;;;;;;;;;;10044996;28;20049;-66
2022/08/10 12:23:55;;;;;;;4.53;1.20;;;;;;;;;;10034674;28;20062;-66
2022/08/10 12:28:57;;;;;;;2.05;1.30;;;;;;;;;;10034117;28;20296;-65
2022/08/10 12:34:04;;;;;;;3.33;1.55;;;;;;;;;;10034633;28;20042;-67
2022/08/10 12:39:12;;;;;;;2.95;1.10;;;;;;;;;;10034087;28;20506;-66
2022/08/10 12:44:21;;;;;;;2.67;1.45;;;;;;;;;;10034345;28;20048;-67
2022/08/10 12:50:02;;;;;;;2.95;1.38;;;;;;;;;;10028589;28;20418;-66
2022/08/10 12:55:17;;;;;;;1.60;1.00;;;;;;;;;;10036975;28;20054;-66
2022/08/10 13:00:11;;;;;;;3.67;1.10;;;;;;;;;;10028573;28;20042;-66
2022/08/10 13:05:10;;;;;;;3.35;1.15;;;;;;;;;;10031275;28;20141;-67
2022/08/10 13:10:05;;;;;;;1.77;1.10;;;;;;;;;;10034100;28;20050;-67
2022/08/10 13:15:25;;;;;;;3.38;1.10;;;;;;;;;;10028175;28;20073;-67
2022/08/10 13:20:59;;;;;;;2.13;1.25;;;;;;;;;;10045204;28;20554;-68
2022/08/10 13:26:12;;;;;;;6.90;1.67;;;;;;;;;;10027263;28;21528;-68
2022/08/10 13:31:11;;;;;;;2.97;1.17;;;;;;;;;;10031010;28;20140;-65
2022/08/10 13:36:08;;;;;;;6.07;1.17;;;;;;;;;;10042788;28;20041;-64
2022/08/10 13:41:02;;;;;;;9.50;1.17;;;;;;;;;;10061949;28;20033;-66
2022/08/10 13:45:56;;;;;;;5.22;1.00;;;;;;;;;;10050214;28;20048;-67
2022/08/10 13:50:52;;;;;;;9.35;1.40;;;;;;;;;;10043824;28;20422;-67
2022/08/10 13:55:50;;;;;;;1.55;1.45;;;;;;;;;;10055902;28;20425;-67
2022/08/10 14:00:47;;;;;;;3.65;1.33;;;;;;;;;;10058015;28;20057;-66
2022/08/10 14:05:51;;;;;;;5.63;1.80;;;;;;;;;;10062178;28;20096;-65
2022/08/10 14:10:46;;;;;;;7.13;1.40;;;;;;;;;;10058815;28;20053;-64
2022/08/10 14:16:04;;;;;;;4.32;1.63;;;;;;;;;;10069115;28;20049;-63
2022/08/10 14:21:00;;;;;;;4.80;1.77;;;;;;;;;;10068367;28;20049;-63
2022/08/10 14:26:09;;;;;;;10.10;1.98;;;;;;;;;;10071959;28;20054;-63
2022/08/10 14:31:10;;;;;;;4.47;1.48;;;;;;;;;;10069315;28;20037;-68
2022/08/10 14:36:07;;;;;;;6.22;1.42;;;;;;;;;;10064940;28;20038;-67
2022/08/10 14:41:18;;;;;;;5.47;1.70;;;;;;;;;;10068497;28;20132;-74
2022/08/10 14:46:33;;;;;;;4.57;1.47;;;;;;;;;;10068111;28;20040;-75
2022/08/10 14:51:28;;;;;;;3.93;1.47;;;;;;;;;;10063000;28;20776;-70
2022/08/10 14:56:35;;;;;;;6.25;1.70;;;;;;;;;;10060976;28;20391;-72
2022/08/10 15:01:28;;;;;;;4.95;1.60;;;;;;;;;;10063652;28;20065;-67
2022/08/10 15:06:53;;;;;;;7.15;1.75;;;;;;;;;;10062741;28;20562;-67
2022/08/10 15:11:49;;;;;;;2.63;1.60;;;;;;;;;;10043380;28;20065;-70
2022/08/10 15:17:02;;;;;;;5.07;2.05;;;;;;;;;;10059232;28;20048;-69
2022/08/10 15:22:02;;;;;;;7.10;1.85;;;;;;;;;;10056250;28;20449;-68
2022/08/10 15:27:16;;;;;;;2.42;1.80;;;;;;;;;;10058167;28;20053;-71
2022/08/10 15:37:24;;;;;;;7.55;1.23;;;;;;;;;;10058794;28;20172;-68
2022/08/10 15:42:38;;;;;;;8.02;2.30;;;;;;;;;;10067396;28;20034;-60
2022/08/10 15:47:41;;;;;;;5.25;1.63;;;;;;;;;;10064809;28;20045;-60
2022/08/10 15:52:53;;;;;;;2.97;1.52;;;;;;;;;;10066695;28;20095;-64
2022/08/10 15:58:14;;;;;;;3.95;1.70;;;;;;;;;;10065443;28;20140;-63
2022/08/10 16:03:14;;;;;;;6.45;1.35;;;;;;;;;;10063566;28;20071;-60
2022/08/10 16:08:11;;;;;;;3.75;1.60;;;;;;;;;;10061051;28;20050;-61
2022/08/10 16:13:12;;;;;;;5.88;1.50;;;;;;;;;;10061843;28;20449;-61
2022/08/10 16:18:31;;;;;;;3.95;1.63;;;;;;;;;;10060933;28;20475;-61
2022/08/10 16:23:53;;;;;;;3.10;1.42;;;;;;;;;;10044839;28;20057;-61
2022/08/10 16:29:10;;;;;;;5.30;1.70;;;;;;;;;;10061748;28;20103;-61
2022/08/10 16:34:08;;;;;;;3.88;1.55;;;;;;;;;;10058481;28;20045;-61
2022/08/10 16:39:01;;;;;;;5.68;1.50;;;;;;;;;;10061780;28;20041;-61
2022/08/10 16:43:56;;;;;;;8.00;2.60;;;;;;;;;;10063672;28;20502;-63
2022/08/10 16:48:50;;;;;;;4.40;1.55;;;;;;;;;;10048246;28;20052;-61
2022/08/10 16:53:46;;;;;;;3.15;1.75;;;;;;;;;;10064578;28;20144;-60
2022/08/10 16:58:52;;;;;;;10.68;2.30;;;;;;;;;;10061703;28;20049;-61
2022/08/10 17:03:49;;;;;;;8.00;1.70;;;;;;;;;;10064844;28;20411;-61
2022/08/10 17:09:03;;;;;;;5.65;1.63;;;;;;;;;;10060723;28;20152;-62
2022/08/10 17:13:58;;;;;;;4.03;2.45;;;;;;;;;;10062454;28;20041;-61
2022/08/10 17:18:51;;;;;;;2.88;1.27;;;;;;;;;;10061960;28;20060;-61
2022/08/10 17:23:49;;;;;;;8.32;1.65;;;;;;;;;;10050921;28;20084;-63
2022/08/10 17:28:46;;;;;;;3.47;1.55;;;;;;;;;;10046833;28;20469;-63
2022/08/10 17:33:43;;;;;;;2.58;1.50;;;;;;;;;;10056406;28;20046;-67
2022/08/10 17:38:36;;;;;;;6.05;1.60;;;;;;;;;;10050351;28;20536;-63
2022/08/10 17:43:30;;;;;;;5.97;1.38;;;;;;;;;;10049630;28;20084;-63
2022/08/10 17:48:44;;;;;;;4.53;1.48;;;;;;;;;;10056258;28;20096;-63
2022/08/10 17:53:49;;;;;;;5.03;1.50;;;;;;;;;;10066253;28;20076;-63
2022/08/10 17:58:50;;;;;;;1.80;1.10;;;;;;;;;;10059801;28;20445;-63
2022/08/10 18:03:42;;;;;;;4.28;1.55;;;;;;;;;;10065521;28;20054;-63
2022/08/10 18:08:40;;;;;;;3.25;1.00;;;;;;;;;;10068025;28;20383;-62
2022/08/10 18:13:35;;;;;;;3.25;1.42;;;;;;;;;;10066121;28;20045;-62
2022/08/10 18:18:49;;;;;;;2.40;1.10;;;;;;;;;;10054492;28;20046;-63
2022/08/10 18:23:53;;;;;;;7.70;1.40;;;;;;;;;;10064104;28;20449;-64
2022/08/10 18:28:50;;;;;;;1.75;1.33;;;;;;;;;;10065457;28;20057;-63
2022/08/10 18:33:45;;;;;;;2.55;1.60;;;;;;;;;;10066706;28;20049;-61
2022/08/10 18:38:43;;;;;;;2.95;1.20;;;;;;;;;;10059092;28;20049;-62
2022/08/10 18:43:51;;;;;;;3.97;1.25;;;;;;;;;;10061379;28;20049;-62
2022/08/10 18:49:09;;;;;;;3.47;1.40;;;;;;;;;;10054452;28;20466;-64
2022/08/10 18:54:11;;;;;;;3.67;1.60;;;;;;;;;;10053107;28;20060;-66
2022/08/10 18:59:42;;;;;;;2.28;1.60;;;;;;;;;;10049196;28;20052;-66
2022/08/10 19:05:21;;;;;;;6.85;1.60;;;;;;;;;;10055223;28;20424;-62
2022/08/10 19:10:25;;;;;;;;;;;;;;;;;;10051440;28;20041;-63
2022/08/10 19:15:48;;;;;;;5.80;1.42;;;;;;;;;;10052449;28;20352;-62
2022/08/10 19:20:40;;;;;;;2.95;1.70;;;;;;;;;;10049093;28;20613;-61
2022/08/10 19:25:41;;;;;;;6.43;1.73;;;;;;;;;;10051978;28;20488;-61
2022/08/10 19:31:05;;;;;;;2.38;1.63;;;;;;;;;;10074566;28;20084;-63
2022/08/10 19:36:16;;;;;;;2.30;1.70;;;;;;;;;;10055455;28;20041;-62
2022/08/10 19:41:15;;;;;;;3.00;1.73;;;;;;;;;;10054209;28;20545;-63
2022/08/10 19:46:36;;;;;;;;;;;;;;;;;;10056443;28;20502;-62
2022/08/10 19:51:59;;;;;;;3.80;2.40;;;;;;;;;;10055355;28;20451;-61
2022/08/10 19:57:05;;;;;;;4.25;1.85;;;;;;;;;;10058489;28;20494;-59
2022/08/10 20:01:59;;;;;;;3.35;2.28;;;;;;;;;;10052353;28;20083;-61
2022/08/10 20:07:22;;;;;;;4.32;2.30;;;;;;;;;;10053332;28;20050;-59
2022/08/10 20:12:27;;;;;;;5.20;1.75;;;;;;;;;;10051994;28;20042;-62
2022/08/10 20:17:38;;;;;;;3.47;1.45;;;;;;;;;;10067832;28;20053;-62
2022/08/10 20:23:12;;;;;;;3.72;1.73;;;;;;;;;;10037336;28;20054;-62
2022/08/10 20:28:16;;;;;;;6.18;1.65;;;;;;;;;;10047714;28;20088;-62
2022/08/10 20:34:00;;;;;;;6.97;1.83;;;;;;;;;;10050960;28;20509;-62
2022/08/10 20:39:47;;;;;;;7.55;2.10;;;;;;;;;;10046386;28;20052;-59
2022/08/10 20:44:52;;;;;;;5.13;2.08;;;;;;;;;;10047434;28;20042;-59
2022/08/10 20:49:57;;;;;;;4.28;2.33;;;;;;;;;;10054329;28;20466;-62
2022/08/10 20:54:55;;;;;;;5.32;1.90;;;;;;;;;;10050344;28;20071;-60
2022/08/10 21:00:28;;;;;;;4.93;1.80;;;;;;;;;;10058044;28;20132;-65
2022/08/10 21:05:39;;;;;;;3.35;1.92;;;;;;;;;;10053785;28;20080;-60
2022/08/10 21:10:50;;;;;;;4.30;2.03;;;;;;;;;;10061681;28;20055;-60
2022/08/10 21:16:02;;;;;;;6.57;2.17;;;;;;;;;;10056821;28;20045;-60
2022/08/10 21:20:55;;;;;;;14.13;2.42;;;;;;;;;;10055004;28;20567;-58
2022/08/10 22:59:33;;;;;;;11.38;4.43;;;;;;;;;;10178974;28;20043;-61
2022/08/10 23:04:46;;;;;;;7.38;2.67;;;;;;;;;;10141696;28;20056;-61
2022/08/10 23:09:40;;;;;;;15.50;2.88;;;;;;;;;;10126902;28;20056;-60
2022/08/10 23:19:45;;;;;;;5.88;2.55;;;;;;;;;;10122010;28;20041;-60
2022/08/10 23:24:43;;;;;;;;;;;;;;;;;;10091723;28;20053;-60
2022/08/10 23:29:37;;;;;;;6.15;2.70;;;;;;;;;;10104632;28;20019;-62
2022/08/10 23:34:50;;;;;;;7.10;2.85;;;;;;;;;;10091617;28;20106;-61
2022/08/10 23:40:10;;;;;;;5.68;2.65;;;;;;;;;;10108036;28;20412;-61
2022/08/10 23:45:09;;;;;;;5.65;2.70;;;;;;;;;;10085028;28;20070;-62
2022/08/10 23:50:09;;;;;;;5.03;3.00;;;;;;;;;;10083408;28;20500;-61
2022/08/10 23:55:08;;;;;;;8.25;2.70;;;;;;;;;;10091603;28;20572;-62
